sensor_id;sensor_type;location;lat;lon;timestamp;temperature;humidity
21540;DHT22;10931;52.164;5.518;2023-07-20T00:00:22;26.40;58.30
21540;DHT22;10931;52.164;5.518;2023-07-20T00:02:51;26.40;58.30
21540;DHT22;10931;52.164;5.518;2023-07-20T00:05:17;26.40;58.30
21540;DHT22;10931;52.164;5.518;2023-07-20T00:07:54;26.40;58.30
21540;DHT22;10931;52.164;5.518;2023-07-20T00:10:25;26.40;58.30
21540;DHT22;10931;52.164;5.518;2023-07-20T00:12:53;26.40;58.30
21540;DHT22;10931;52.164;5.518;2023-07-20T00:15:29;26.40;58.30
21540;DHT22;10931;52.164;5.518;2023-07-20T00:17:57;26.40;58.30
21540;DHT22;10931;52.164;5.518;2023-07-20T00:20:25;26.30;58.30
21540;DHT22;10931;52.164;5.518;2023-07-20T00:22:51;26.30;58.30
21540;DHT22;10931;52.164;5.518;2023-07-20T00:25:18;26.30;58.30
21540;DHT22;10931;52.164;5.518;2023-07-20T00:27:44;26.30;58.30
21540;DHT22;10931;52.164;5.518;2023-07-20T00:30:10;26.30;58.30
21540;DHT22;10931;52.164;5.518;2023-07-20T00:32:36;26.30;58.30
21540;DHT22;10931;52.164;5.518;2023-07-20T00:35:12;26.30;58.30
21540;DHT22;10931;52.164;5.518;2023-07-20T00:37:56;26.30;58.30
21540;DHT22;10931;52.164;5.518;2023-07-20T00:40:21;26.30;58.30
21540;DHT22;10931;52.164;5.518;2023-07-20T00:42:47;26.30;58.30
21540;DHT22;10931;52.164;5.518;2023-07-20T00:45:13;26.30;58.30
21540;DHT22;10931;52.164;5.518;2023-07-20T00:47:39;26.30;58.30
21540;DHT22;10931;52.164;5.518;2023-07-20T00:50:07;26.30;58.30
21540;DHT22;10931;52.164;5.518;2023-07-20T00:52:34;26.30;58.30
21540;DHT22;10931;52.164;5.518;2023-07-20T00:55:02;26.20;58.30
21540;DHT22;10931;52.164;5.518;2023-07-20T00:57:28;26.20;58.30
21540;DHT22;10931;52.164;5.518;2023-07-20T00:59:54;26.30;58.30
21540;DHT22;10931;52.164;5.518;2023-07-20T01:02:25;26.20;58.30
21540;DHT22;10931;52.164;5.518;2023-07-20T01:04:53;26.20;58.30
21540;DHT22;10931;52.164;5.518;2023-07-20T01:07:31;26.20;58.30
21540;DHT22;10931;52.164;5.518;2023-07-20T01:10:19;26.20;58.30
21540;DHT22;10931;52.164;5.518;2023-07-20T01:12:53;26.20;58.30
21540;DHT22;10931;52.164;5.518;2023-07-20T01:15:23;26.20;58.30
21540;DHT22;10931;52.164;5.518;2023-07-20T01:17:49;26.20;58.30
21540;DHT22;10931;52.164;5.518;2023-07-20T01:20:18;26.20;58.30
21540;DHT22;10931;52.164;5.518;2023-07-20T01:23:41;26.20;58.30
21540;DHT22;10931;52.164;5.518;2023-07-20T01:31:30;26.20;58.30
21540;DHT22;10931;52.164;5.518;2023-07-20T01:34:00;26.20;58.30
21540;DHT22;10931;52.164;5.518;2023-07-20T01:36:30;26.20;58.30
21540;DHT22;10931;52.164;5.518;2023-07-20T01:38:56;26.10;58.30
21540;DHT22;10931;52.164;5.518;2023-07-20T01:41:46;26.10;58.20
21540;DHT22;10931;52.164;5.518;2023-07-20T01:44:12;26.10;58.30
21540;DHT22;10931;52.164;5.518;2023-07-20T01:46:38;26.10;58.30
21540;DHT22;10931;52.164;5.518;2023-07-20T01:49:04;26.10;58.30
21540;DHT22;10931;52.164;5.518;2023-07-20T01:51:35;26.10;58.30
21540;DHT22;10931;52.164;5.518;2023-07-20T01:54:03;26.10;58.20
21540;DHT22;10931;52.164;5.518;2023-07-20T01:56:32;26.10;58.30
21540;DHT22;10931;52.164;5.518;2023-07-20T01:59:00;26.10;58.30
21540;DHT22;10931;52.164;5.518;2023-07-20T02:01:29;26.10;58.30
21540;DHT22;10931;52.164;5.518;2023-07-20T02:03:54;26.10;58.30
21540;DHT22;10931;52.164;5.518;2023-07-20T02:06:23;26.10;58.30
21540;DHT22;10931;52.164;5.518;2023-07-20T02:08:51;26.10;58.30
21540;DHT22;10931;52.164;5.518;2023-07-20T02:11:20;26.10;58.30
21540;DHT22;10931;52.164;5.518;2023-07-20T02:13:46;26.00;58.20
21540;DHT22;10931;52.164;5.518;2023-07-20T02:16:11;26.00;58.20
21540;DHT22;10931;52.164;5.518;2023-07-20T02:18:37;26.10;58.30
21540;DHT22;10931;52.164;5.518;2023-07-20T02:21:03;26.00;58.20
21540;DHT22;10931;52.164;5.518;2023-07-20T02:23:31;26.00;58.20
21540;DHT22;10931;52.164;5.518;2023-07-20T02:25:57;26.00;58.20
21540;DHT22;10931;52.164;5.518;2023-07-20T02:28:22;26.00;58.20
21540;DHT22;10931;52.164;5.518;2023-07-20T02:30:58;26.00;58.20
21540;DHT22;10931;52.164;5.518;2023-07-20T02:33:26;26.00;58.20
21540;DHT22;10931;52.164;5.518;2023-07-20T02:35:52;26.00;58.20
21540;DHT22;10931;52.164;5.518;2023-07-20T02:38:18;26.00;58.20
21540;DHT22;10931;52.164;5.518;2023-07-20T02:40:43;26.00;58.20
21540;DHT22;10931;52.164;5.518;2023-07-20T02:43:12;26.00;58.20
21540;DHT22;10931;52.164;5.518;2023-07-20T02:45:40;26.00;58.20
21540;DHT22;10931;52.164;5.518;2023-07-20T02:48:08;26.00;58.20
21540;DHT22;10931;52.164;5.518;2023-07-20T02:50:34;26.00;58.20
21540;DHT22;10931;52.164;5.518;2023-07-20T02:53:03;26.00;58.20
21540;DHT22;10931;52.164;5.518;2023-07-20T02:55:31;26.00;58.20
21540;DHT22;10931;52.164;5.518;2023-07-20T02:57:57;26.00;58.20
21540;DHT22;10931;52.164;5.518;2023-07-20T03:00:22;25.90;58.10
21540;DHT22;10931;52.164;5.518;2023-07-20T03:02:51;26.00;58.20
21540;DHT22;10931;52.164;5.518;2023-07-20T03:05:21;26.00;58.20
21540;DHT22;10931;52.164;5.518;2023-07-20T03:07:51;25.90;58.10
21540;DHT22;10931;52.164;5.518;2023-07-20T03:10:16;25.90;58.10
21540;DHT22;10931;52.164;5.518;2023-07-20T03:12:44;25.90;58.10
21540;DHT22;10931;52.164;5.518;2023-07-20T03:15:10;25.90;58.10
21540;DHT22;10931;52.164;5.518;2023-07-20T03:17:36;25.90;58.10
21540;DHT22;10931;52.164;5.518;2023-07-20T03:20:02;25.90;58.10
21540;DHT22;10931;52.164;5.518;2023-07-20T03:22:28;25.90;58.10
21540;DHT22;10931;52.164;5.518;2023-07-20T03:24:54;25.90;58.10
21540;DHT22;10931;52.164;5.518;2023-07-20T03:27:22;25.90;58.10
21540;DHT22;10931;52.164;5.518;2023-07-20T03:29:54;25.80;58.00
21540;DHT22;10931;52.164;5.518;2023-07-20T03:32:20;25.90;58.10
21540;DHT22;10931;52.164;5.518;2023-07-20T03:34:46;25.90;58.10
21540;DHT22;10931;52.164;5.518;2023-07-20T03:37:13;25.80;58.00
21540;DHT22;10931;52.164;5.518;2023-07-20T03:39:39;25.80;58.00
21540;DHT22;10931;52.164;5.518;2023-07-20T03:42:07;25.80;58.00
21540;DHT22;10931;52.164;5.518;2023-07-20T03:44:33;25.80;58.00
21540;DHT22;10931;52.164;5.518;2023-07-20T03:46:59;25.80;58.10
21540;DHT22;10931;52.164;5.518;2023-07-20T03:49:24;25.80;58.00
21540;DHT22;10931;52.164;5.518;2023-07-20T03:51:50;25.80;58.00
21540;DHT22;10931;52.164;5.518;2023-07-20T03:54:18;25.80;58.00
21540;DHT22;10931;52.164;5.518;2023-07-20T03:56:44;25.80;58.10
21540;DHT22;10931;52.164;5.518;2023-07-20T03:59:10;25.80;58.00
21540;DHT22;10931;52.164;5.518;2023-07-20T04:01:36;25.80;58.00
21540;DHT22;10931;52.164;5.518;2023-07-20T04:04:06;25.80;58.00
21540;DHT22;10931;52.164;5.518;2023-07-20T04:06:33;25.80;58.00
21540;DHT22;10931;52.164;5.518;2023-07-20T04:08:58;25.70;58.00
21540;DHT22;10931;52.164;5.518;2023-07-20T04:11:24;25.80;58.00
21540;DHT22;10931;52.164;5.518;2023-07-20T04:13:55;25.70;58.00
21540;DHT22;10931;52.164;5.518;2023-07-20T04:16:21;25.70;58.00
21540;DHT22;10931;52.164;5.518;2023-07-20T04:18:51;25.70;58.00
21540;DHT22;10931;52.164;5.518;2023-07-20T04:21:16;25.70;58.00
21540;DHT22;10931;52.164;5.518;2023-07-20T04:23:42;25.70;58.00
21540;DHT22;10931;52.164;5.518;2023-07-20T04:26:08;25.70;58.00
21540;DHT22;10931;52.164;5.518;2023-07-20T04:28:34;25.70;58.00
21540;DHT22;10931;52.164;5.518;2023-07-20T04:31:15;25.70;58.00
21540;DHT22;10931;52.164;5.518;2023-07-20T04:33:44;25.70;58.00
21540;DHT22;10931;52.164;5.518;2023-07-20T04:36:10;25.70;58.00
21540;DHT22;10931;52.164;5.518;2023-07-20T04:38:35;25.70;58.00
21540;DHT22;10931;52.164;5.518;2023-07-20T04:41:01;25.70;58.00
21540;DHT22;10931;52.164;5.518;2023-07-20T04:43:36;25.60;57.90
21540;DHT22;10931;52.164;5.518;2023-07-20T04:46:02;25.60;57.90
21540;DHT22;10931;52.164;5.518;2023-07-20T04:48:30;25.60;57.90
21540;DHT22;10931;52.164;5.518;2023-07-20T04:50:55;25.60;58.00
21540;DHT22;10931;52.164;5.518;2023-07-20T04:53:23;25.60;57.90
21540;DHT22;10931;52.164;5.518;2023-07-20T04:55:54;25.60;57.90
21540;DHT22;10931;52.164;5.518;2023-07-20T04:58:22;25.60;57.90
21540;DHT22;10931;52.164;5.518;2023-07-20T05:00:50;25.60;57.90
21540;DHT22;10931;52.164;5.518;2023-07-20T05:03:17;25.60;58.00
21540;DHT22;10931;52.164;5.518;2023-07-20T05:05:43;25.60;57.90
21540;DHT22;10931;52.164;5.518;2023-07-20T05:08:11;25.60;58.00
21540;DHT22;10931;52.164;5.518;2023-07-20T05:10:37;25.60;58.00
21540;DHT22;10931;52.164;5.518;2023-07-20T05:13:02;25.60;57.90
21540;DHT22;10931;52.164;5.518;2023-07-20T05:15:28;25.60;58.00
21540;DHT22;10931;52.164;5.518;2023-07-20T05:17:57;25.60;58.00
21540;DHT22;10931;52.164;5.518;2023-07-20T05:20:22;25.60;58.00
21540;DHT22;10931;52.164;5.518;2023-07-20T05:22:48;25.60;58.00
21540;DHT22;10931;52.164;5.518;2023-07-20T05:25:16;25.60;58.00
21540;DHT22;10931;52.164;5.518;2023-07-20T05:27:44;25.60;58.00
21540;DHT22;10931;52.164;5.518;2023-07-20T05:30:11;25.50;58.00
21540;DHT22;10931;52.164;5.518;2023-07-20T05:32:36;25.50;57.90
21540;DHT22;10931;52.164;5.518;2023-07-20T05:35:02;25.50;58.00
21540;DHT22;10931;52.164;5.518;2023-07-20T05:37:31;25.50;57.90
21540;DHT22;10931;52.164;5.518;2023-07-20T05:39:59;25.50;58.00
21540;DHT22;10931;52.164;5.518;2023-07-20T05:42:27;25.50;57.90
21540;DHT22;10931;52.164;5.518;2023-07-20T05:44:53;25.50;58.00
21540;DHT22;10931;52.164;5.518;2023-07-20T05:47:23;25.50;58.00
21540;DHT22;10931;52.164;5.518;2023-07-20T05:49:49;25.50;58.00
21540;DHT22;10931;52.164;5.518;2023-07-20T05:52:14;25.50;58.00
21540;DHT22;10931;52.164;5.518;2023-07-20T05:54:40;25.50;58.00
21540;DHT22;10931;52.164;5.518;2023-07-20T05:57:06;25.50;58.00
21540;DHT22;10931;52.164;5.518;2023-07-20T05:59:31;25.50;58.00
21540;DHT22;10931;52.164;5.518;2023-07-20T06:01:57;25.50;58.00
21540;DHT22;10931;52.164;5.518;2023-07-20T06:04:23;25.50;58.00
21540;DHT22;10931;52.164;5.518;2023-07-20T06:06:49;25.40;58.00
21540;DHT22;10931;52.164;5.518;2023-07-20T06:09:15;25.40;58.00
21540;DHT22;10931;52.164;5.518;2023-07-20T06:11:46;25.50;58.00
21540;DHT22;10931;52.164;5.518;2023-07-20T06:14:12;25.40;58.00
21540;DHT22;10931;52.164;5.518;2023-07-20T06:16:40;25.40;58.00
21540;DHT22;10931;52.164;5.518;2023-07-20T06:19:06;25.40;58.00
21540;DHT22;10931;52.164;5.518;2023-07-20T06:21:41;25.40;58.00
21540;DHT22;10931;52.164;5.518;2023-07-20T06:24:07;25.40;58.00
21540;DHT22;10931;52.164;5.518;2023-07-20T06:26:36;25.40;58.00
21540;DHT22;10931;52.164;5.518;2023-07-20T06:29:07;25.40;58.00
21540;DHT22;10931;52.164;5.518;2023-07-20T06:31:35;25.40;58.00
21540;DHT22;10931;52.164;5.518;2023-07-20T06:34:01;25.40;58.10
21540;DHT22;10931;52.164;5.518;2023-07-20T06:36:27;25.40;58.10
21540;DHT22;10931;52.164;5.518;2023-07-20T06:38:54;25.40;58.00
21540;DHT22;10931;52.164;5.518;2023-07-20T06:41:22;25.40;58.10
21540;DHT22;10931;52.164;5.518;2023-07-20T06:43:48;25.40;58.10
21540;DHT22;10931;52.164;5.518;2023-07-20T06:46:14;25.40;58.10
21540;DHT22;10931;52.164;5.518;2023-07-20T06:48:39;25.40;58.10
21540;DHT22;10931;52.164;5.518;2023-07-20T06:51:05;25.40;58.10
21540;DHT22;10931;52.164;5.518;2023-07-20T06:53:33;25.40;58.10
21540;DHT22;10931;52.164;5.518;2023-07-20T06:55:58;25.40;58.10
21540;DHT22;10931;52.164;5.518;2023-07-20T06:58:25;25.40;58.10
21540;DHT22;10931;52.164;5.518;2023-07-20T07:00:51;25.40;58.10
21540;DHT22;10931;52.164;5.518;2023-07-20T07:03:24;25.40;58.10
21540;DHT22;10931;52.164;5.518;2023-07-20T07:05:50;25.30;58.00
21540;DHT22;10931;52.164;5.518;2023-07-20T07:08:20;25.30;58.00
21540;DHT22;10931;52.164;5.518;2023-07-20T07:10:46;25.30;58.00
21540;DHT22;10931;52.164;5.518;2023-07-20T07:13:11;25.30;58.00
21540;DHT22;10931;52.164;5.518;2023-07-20T07:15:41;25.30;58.00
21540;DHT22;10931;52.164;5.518;2023-07-20T07:18:10;25.30;58.00
21540;DHT22;10931;52.164;5.518;2023-07-20T07:20:35;25.30;58.00
21540;DHT22;10931;52.164;5.518;2023-07-20T07:23:01;25.30;58.00
21540;DHT22;10931;52.164;5.518;2023-07-20T07:25:27;25.30;58.00
21540;DHT22;10931;52.164;5.518;2023-07-20T07:27:54;25.40;58.10
21540;DHT22;10931;52.164;5.518;2023-07-20T07:30:30;25.30;58.00
21540;DHT22;10931;52.164;5.518;2023-07-20T07:32:55;25.30;58.00
21540;DHT22;10931;52.164;5.518;2023-07-20T07:35:24;25.30;58.00
21540;DHT22;10931;52.164;5.518;2023-07-20T07:37:49;25.30;58.00
21540;DHT22;10931;52.164;5.518;2023-07-20T07:40:18;25.30;58.00
21540;DHT22;10931;52.164;5.518;2023-07-20T07:42:43;25.30;58.00
21540;DHT22;10931;52.164;5.518;2023-07-20T07:45:10;25.30;58.00
21540;DHT22;10931;52.164;5.518;2023-07-20T07:47:35;25.30;58.00
21540;DHT22;10931;52.164;5.518;2023-07-20T07:50:02;25.30;58.00
21540;DHT22;10931;52.164;5.518;2023-07-20T07:52:28;25.30;58.00
21540;DHT22;10931;52.164;5.518;2023-07-20T07:54:59;25.30;58.00
21540;DHT22;10931;52.164;5.518;2023-07-20T07:57:25;25.30;58.00
21540;DHT22;10931;52.164;5.518;2023-07-20T07:59:51;25.30;58.00
21540;DHT22;10931;52.164;5.518;2023-07-20T08:02:17;25.30;58.00
21540;DHT22;10931;52.164;5.518;2023-07-20T08:04:42;25.30;58.00
21540;DHT22;10931;52.164;5.518;2023-07-20T08:07:08;25.30;58.00
21540;DHT22;10931;52.164;5.518;2023-07-20T08:09:36;25.30;58.00
21540;DHT22;10931;52.164;5.518;2023-07-20T08:12:03;25.30;58.00
21540;DHT22;10931;52.164;5.518;2023-07-20T08:14:29;25.30;58.00
21540;DHT22;10931;52.164;5.518;2023-07-20T08:16:54;25.30;58.00
21540;DHT22;10931;52.164;5.518;2023-07-20T08:19:23;25.30;58.00
21540;DHT22;10931;52.164;5.518;2023-07-20T08:21:52;25.30;58.00
21540;DHT22;10931;52.164;5.518;2023-07-20T08:24:18;25.30;58.00
21540;DHT22;10931;52.164;5.518;2023-07-20T08:26:43;25.30;58.00
21540;DHT22;10931;52.164;5.518;2023-07-20T08:29:09;25.30;57.90
21540;DHT22;10931;52.164;5.518;2023-07-20T08:31:37;25.30;57.90
21540;DHT22;10931;52.164;5.518;2023-07-20T08:34:05;25.30;57.90
21540;DHT22;10931;52.164;5.518;2023-07-20T08:36:31;25.30;57.90
21540;DHT22;10931;52.164;5.518;2023-07-20T08:39:00;25.30;57.80
21540;DHT22;10931;52.164;5.518;2023-07-20T08:41:36;25.30;57.90
21540;DHT22;10931;52.164;5.518;2023-07-20T08:44:02;25.30;57.90
21540;DHT22;10931;52.164;5.518;2023-07-20T08:46:28;25.30;57.90
21540;DHT22;10931;52.164;5.518;2023-07-20T08:48:55;25.30;57.80
21540;DHT22;10931;52.164;5.518;2023-07-20T08:51:21;25.30;57.80
21540;DHT22;10931;52.164;5.518;2023-07-20T08:53:51;25.30;57.80
21540;DHT22;10931;52.164;5.518;2023-07-20T08:56:18;25.30;57.90
21540;DHT22;10931;52.164;5.518;2023-07-20T08:58:45;25.30;57.90
21540;DHT22;10931;52.164;5.518;2023-07-20T09:01:12;25.30;57.80
21540;DHT22;10931;52.164;5.518;2023-07-20T09:03:40;25.30;57.80
21540;DHT22;10931;52.164;5.518;2023-07-20T09:06:08;25.30;57.80
21540;DHT22;10931;52.164;5.518;2023-07-20T09:08:42;25.30;57.80
21540;DHT22;10931;52.164;5.518;2023-07-20T09:11:10;25.30;57.80
21540;DHT22;10931;52.164;5.518;2023-07-20T09:13:37;25.30;57.70
21540;DHT22;10931;52.164;5.518;2023-07-20T09:16:03;25.30;57.70
21540;DHT22;10931;52.164;5.518;2023-07-20T09:18:32;25.30;57.70
21540;DHT22;10931;52.164;5.518;2023-07-20T09:21:07;25.30;57.60
21540;DHT22;10931;52.164;5.518;2023-07-20T09:23:34;25.30;57.60
21540;DHT22;10931;52.164;5.518;2023-07-20T09:26:11;25.30;57.50
21540;DHT22;10931;52.164;5.518;2023-07-20T09:28:44;25.30;57.50
21540;DHT22;10931;52.164;5.518;2023-07-20T09:31:19;25.30;57.50
21540;DHT22;10931;52.164;5.518;2023-07-20T09:33:46;25.30;57.40
21540;DHT22;10931;52.164;5.518;2023-07-20T09:36:21;25.30;57.40
21540;DHT22;10931;52.164;5.518;2023-07-20T09:38:58;25.30;57.40
21540;DHT22;10931;52.164;5.518;2023-07-20T09:41:26;25.30;57.30
21540;DHT22;10931;52.164;5.518;2023-07-20T09:43:53;25.30;57.40
21540;DHT22;10931;52.164;5.518;2023-07-20T09:46:22;25.40;57.40
21540;DHT22;10931;52.164;5.518;2023-07-20T09:48:57;25.40;57.40
21540;DHT22;10931;52.164;5.518;2023-07-20T09:51:23;25.40;57.40
21540;DHT22;10931;52.164;5.518;2023-07-20T09:54:00;25.40;57.40
21540;DHT22;10931;52.164;5.518;2023-07-20T09:56:38;25.40;57.40
21540;DHT22;10931;52.164;5.518;2023-07-20T09:59:05;25.40;57.50
21540;DHT22;10931;52.164;5.518;2023-07-20T10:01:43;25.40;57.50
21540;DHT22;10931;52.164;5.518;2023-07-20T10:04:14;25.40;57.50
21540;DHT22;10931;52.164;5.518;2023-07-20T10:06:42;25.40;57.50
21540;DHT22;10931;52.164;5.518;2023-07-20T10:09:10;25.40;57.60
21540;DHT22;10931;52.164;5.518;2023-07-20T10:11:45;25.50;57.70
21540;DHT22;10931;52.164;5.518;2023-07-20T10:14:20;25.40;57.60
21540;DHT22;10931;52.164;5.518;2023-07-20T10:16:51;25.50;57.70
21540;DHT22;10931;52.164;5.518;2023-07-20T10:19:32;25.50;57.70
21540;DHT22;10931;52.164;5.518;2023-07-20T10:37:54;25.50;57.60
21540;DHT22;10931;52.164;5.518;2023-07-20T10:40:38;25.50;57.50
21540;DHT22;10931;52.164;5.518;2023-07-20T10:43:09;25.60;57.50
21540;DHT22;10931;52.164;5.518;2023-07-20T10:45:52;25.60;57.40
21540;DHT22;10931;52.164;5.518;2023-07-20T10:48:22;25.60;57.30
21540;DHT22;10931;52.164;5.518;2023-07-20T10:51:14;25.60;57.20
21540;DHT22;10931;52.164;5.518;2023-07-20T10:53:45;25.60;57.20
21540;DHT22;10931;52.164;5.518;2023-07-20T10:56:19;25.60;57.20
21540;DHT22;10931;52.164;5.518;2023-07-20T10:58:46;25.60;57.20
21540;DHT22;10931;52.164;5.518;2023-07-20T11:01:16;25.60;57.20
21540;DHT22;10931;52.164;5.518;2023-07-20T11:03:43;25.60;57.20
21540;DHT22;10931;52.164;5.518;2023-07-20T11:06:36;25.60;57.20
21540;DHT22;10931;52.164;5.518;2023-07-20T11:09:12;25.60;57.10
21540;DHT22;10931;52.164;5.518;2023-07-20T11:11:42;25.70;57.20
21540;DHT22;10931;52.164;5.518;2023-07-20T11:14:11;25.70;57.10
21540;DHT22;10931;52.164;5.518;2023-07-20T11:16:50;25.70;57.10
21540;DHT22;10931;52.164;5.518;2023-07-20T11:19:25;25.70;57.00
21540;DHT22;10931;52.164;5.518;2023-07-20T11:21:55;25.70;57.00
21540;DHT22;10931;52.164;5.518;2023-07-20T11:24:22;25.70;57.00
21540;DHT22;10931;52.164;5.518;2023-07-20T11:26:49;25.80;57.00
21540;DHT22;10931;52.164;5.518;2023-07-20T11:29:20;25.70;56.90
21540;DHT22;10931;52.164;5.518;2023-07-20T11:31:46;25.80;57.00
21540;DHT22;10931;52.164;5.518;2023-07-20T11:34:17;25.80;57.00
21540;DHT22;10931;52.164;5.518;2023-07-20T11:36:47;25.80;56.90
21540;DHT22;10931;52.164;5.518;2023-07-20T11:39:15;25.80;57.00
21540;DHT22;10931;52.164;5.518;2023-07-20T11:44:12;25.80;56.80
21540;DHT22;10931;52.164;5.518;2023-07-20T11:46:41;25.90;56.90
21540;DHT22;10931;52.164;5.518;2023-07-20T11:49:11;25.90;56.90
21540;DHT22;10931;52.164;5.518;2023-07-20T11:51:39;25.90;56.90
21540;DHT22;10931;52.164;5.518;2023-07-20T11:54:26;25.90;56.90
21540;DHT22;10931;52.164;5.518;2023-07-20T11:56:55;25.90;56.80
21540;DHT22;10931;52.164;5.518;2023-07-20T11:59:22;25.90;56.80
21540;DHT22;10931;52.164;5.518;2023-07-20T12:01:47;26.00;56.90
21540;DHT22;10931;52.164;5.518;2023-07-20T12:04:13;26.00;56.90
21540;DHT22;10931;52.164;5.518;2023-07-20T12:06:39;26.00;56.90
21540;DHT22;10931;52.164;5.518;2023-07-20T12:09:05;26.00;56.90
21540;DHT22;10931;52.164;5.518;2023-07-20T12:11:35;26.00;56.90
21540;DHT22;10931;52.164;5.518;2023-07-20T12:14:01;26.00;56.90
21540;DHT22;10931;52.164;5.518;2023-07-20T12:16:28;26.00;56.80
21540;DHT22;10931;52.164;5.518;2023-07-20T12:19:15;26.00;56.80
21540;DHT22;10931;52.164;5.518;2023-07-20T12:21:41;26.00;56.80
21540;DHT22;10931;52.164;5.518;2023-07-20T12:24:10;26.00;56.80
21540;DHT22;10931;52.164;5.518;2023-07-20T12:26:37;26.10;56.90
21540;DHT22;10931;52.164;5.518;2023-07-20T12:29:08;26.10;56.80
21540;DHT22;10931;52.164;5.518;2023-07-20T12:31:39;26.10;56.80
21540;DHT22;10931;52.164;5.518;2023-07-20T12:34:09;26.10;56.70
21540;DHT22;10931;52.164;5.518;2023-07-20T12:36:36;26.10;56.70
21540;DHT22;10931;52.164;5.518;2023-07-20T12:39:04;26.10;56.60
21540;DHT22;10931;52.164;5.518;2023-07-20T12:41:33;26.10;56.50
21540;DHT22;10931;52.164;5.518;2023-07-20T12:44:02;26.20;56.60
21540;DHT22;10931;52.164;5.518;2023-07-20T12:46:34;26.20;56.60
21540;DHT22;10931;52.164;5.518;2023-07-20T12:49:07;26.20;56.50
21540;DHT22;10931;52.164;5.518;2023-07-20T12:51:32;26.20;56.40
21540;DHT22;10931;52.164;5.518;2023-07-20T12:53:58;26.20;56.30
21540;DHT22;10931;52.164;5.518;2023-07-20T12:56:24;26.20;56.40
21540;DHT22;10931;52.164;5.518;2023-07-20T12:58:53;26.30;56.40
21540;DHT22;10931;52.164;5.518;2023-07-20T13:01:19;26.30;56.40
21540;DHT22;10931;52.164;5.518;2023-07-20T13:03:45;26.30;56.40
21540;DHT22;10931;52.164;5.518;2023-07-20T13:06:13;26.30;56.40
21540;DHT22;10931;52.164;5.518;2023-07-20T13:08:39;26.30;56.30
21540;DHT22;10931;52.164;5.518;2023-07-20T13:11:05;26.30;56.30
21540;DHT22;10931;52.164;5.518;2023-07-20T13:13:30;26.40;56.40
21540;DHT22;10931;52.164;5.518;2023-07-20T13:15:56;26.40;56.40
21540;DHT22;10931;52.164;5.518;2023-07-20T13:18:22;26.40;56.30
21540;DHT22;10931;52.164;5.518;2023-07-20T13:20:48;26.40;56.30
21540;DHT22;10931;52.164;5.518;2023-07-20T13:23:13;26.40;56.30
21540;DHT22;10931;52.164;5.518;2023-07-20T13:25:39;26.40;56.40
21540;DHT22;10931;52.164;5.518;2023-07-20T13:28:05;26.40;56.40
21540;DHT22;10931;52.164;5.518;2023-07-20T13:30:31;26.40;56.30
21540;DHT22;10931;52.164;5.518;2023-07-20T13:32:57;26.50;56.40
21540;DHT22;10931;52.164;5.518;2023-07-20T13:35:23;26.50;56.40
21540;DHT22;10931;52.164;5.518;2023-07-20T13:37:52;26.50;56.40
21540;DHT22;10931;52.164;5.518;2023-07-20T13:40:20;26.50;56.40
21540;DHT22;10931;52.164;5.518;2023-07-20T13:42:57;26.50;56.40
21540;DHT22;10931;52.164;5.518;2023-07-20T13:45:23;26.50;56.40
21540;DHT22;10931;52.164;5.518;2023-07-20T13:47:52;26.50;56.40
21540;DHT22;10931;52.164;5.518;2023-07-20T13:50:18;26.50;56.40
21540;DHT22;10931;52.164;5.518;2023-07-20T13:52:47;26.60;56.50
21540;DHT22;10931;52.164;5.518;2023-07-20T13:55:14;26.60;56.50
21540;DHT22;10931;52.164;5.518;2023-07-20T13:57:40;26.60;56.50
21540;DHT22;10931;52.164;5.518;2023-07-20T14:00:06;26.60;56.50
21540;DHT22;10931;52.164;5.518;2023-07-20T14:02:39;26.60;56.50
21540;DHT22;10931;52.164;5.518;2023-07-20T14:05:11;26.60;56.40
21540;DHT22;10931;52.164;5.518;2023-07-20T14:07:37;26.60;56.40
21540;DHT22;10931;52.164;5.518;2023-07-20T14:10:02;26.70;56.40
21540;DHT22;10931;52.164;5.518;2023-07-20T14:12:28;26.70;56.30
21540;DHT22;10931;52.164;5.518;2023-07-20T14:14:54;26.70;56.30
21540;DHT22;10931;52.164;5.518;2023-07-20T14:17:21;26.70;56.30
21540;DHT22;10931;52.164;5.518;2023-07-20T14:19:47;26.70;56.20
21540;DHT22;10931;52.164;5.518;2023-07-20T14:22:13;26.70;56.20
21540;DHT22;10931;52.164;5.518;2023-07-20T14:24:39;26.70;56.20
21540;DHT22;10931;52.164;5.518;2023-07-20T14:27:05;26.70;56.20
21540;DHT22;10931;52.164;5.518;2023-07-20T14:29:31;26.80;56.20
21540;DHT22;10931;52.164;5.518;2023-07-20T14:31:58;26.80;56.20
21540;DHT22;10931;52.164;5.518;2023-07-20T14:34:24;26.80;56.20
21540;DHT22;10931;52.164;5.518;2023-07-20T14:36:49;26.80;56.20
21540;DHT22;10931;52.164;5.518;2023-07-20T14:39:15;26.80;56.10
21540;DHT22;10931;52.164;5.518;2023-07-20T14:41:41;26.80;56.00
21540;DHT22;10931;52.164;5.518;2023-07-20T14:44:07;26.80;55.90
21540;DHT22;10931;52.164;5.518;2023-07-20T14:46:36;26.80;55.90
21540;DHT22;10931;52.164;5.518;2023-07-20T14:49:04;26.80;55.80
21540;DHT22;10931;52.164;5.518;2023-07-20T14:51:32;26.80;55.70
21540;DHT22;10931;52.164;5.518;2023-07-20T14:54:09;26.90;56.00
21540;DHT22;10931;52.164;5.518;2023-07-20T14:56:47;26.90;55.80
21540;DHT22;10931;52.164;5.518;2023-07-20T14:59:20;26.90;55.70
21540;DHT22;10931;52.164;5.518;2023-07-20T15:01:52;26.90;55.70
21540;DHT22;10931;52.164;5.518;2023-07-20T15:04:23;26.90;55.70
21540;DHT22;10931;52.164;5.518;2023-07-20T15:06:53;26.90;55.70
21540;DHT22;10931;52.164;5.518;2023-07-20T15:09:28;26.90;55.70
21540;DHT22;10931;52.164;5.518;2023-07-20T15:12:04;26.90;55.70
21540;DHT22;10931;52.164;5.518;2023-07-20T15:14:35;27.00;55.70
21540;DHT22;10931;52.164;5.518;2023-07-20T15:17:11;26.90;55.70
21540;DHT22;10931;52.164;5.518;2023-07-20T15:19:39;27.00;55.70
21540;DHT22;10931;52.164;5.518;2023-07-20T15:22:10;27.00;55.70
21540;DHT22;10931;52.164;5.518;2023-07-20T15:24:38;27.00;55.70
21540;DHT22;10931;52.164;5.518;2023-07-20T15:27:34;27.00;55.70
21540;DHT22;10931;52.164;5.518;2023-07-20T15:30:11;27.00;55.70
21540;DHT22;10931;52.164;5.518;2023-07-20T15:32:50;27.00;55.70
21540;DHT22;10931;52.164;5.518;2023-07-20T15:35:26;27.00;55.60
21540;DHT22;10931;52.164;5.518;2023-07-20T15:37:57;27.00;55.60
21540;DHT22;10931;52.164;5.518;2023-07-20T15:40:32;27.00;55.60
21540;DHT22;10931;52.164;5.518;2023-07-20T15:43:14;27.00;55.60
21540;DHT22;10931;52.164;5.518;2023-07-20T15:45:48;27.10;55.60
21540;DHT22;10931;52.164;5.518;2023-07-20T15:48:24;27.10;56.10
21540;DHT22;10931;52.164;5.518;2023-07-20T15:50:49;27.10;55.60
21540;DHT22;10931;52.164;5.518;2023-07-20T15:53:18;27.10;55.60
21540;DHT22;10931;52.164;5.518;2023-07-20T15:55:44;27.10;55.60
21540;DHT22;10931;52.164;5.518;2023-07-20T15:58:13;27.10;55.60
21540;DHT22;10931;52.164;5.518;2023-07-20T16:00:43;27.10;55.60
21540;DHT22;10931;52.164;5.518;2023-07-20T16:03:12;27.10;55.60